Time;durP1;ratioP1;P1;durP2;ratioP2;P2;SDS_P1;SDS_P2;PMS_P1;PMS_P2;Temp;Humidity;BMP_temperature;BMP_pressure;BME280_temperature;BME280_humidity;BME280_pressure;Samples;Min_cycle;Max_cycle;Signal;HPM_P1;HPM_P2
2022/02/24 00:00:20;;;;;;;14.50;7.92;;;;;;;2.57;100.00;99810.53;1726014;82;21047;-64
2022/02/24 00:02:46;;;;;;;10.63;6.75;;;;;;;2.53;100.00;99812.00;1723842;82;21679;-64
2022/02/24 00:05:13;;;;;;;15.23;7.47;;;;;;;2.55;100.00;99808.05;1728769;82;21020;-64
2022/02/24 00:07:40;;;;;;;15.43;7.25;;;;;;;2.63;100.00;99807.78;1723348;82;21059;-63
2022/02/24 00:10:10;;;;;;;10.08;6.35;;;;;;;2.65;100.00;99815.12;1694374;84;21000;-64
2022/02/24 00:12:38;;;;;;;13.28;7.47;;;;;;;2.63;100.00;99819.05;1729187;81;21027;-63
2022/02/24 00:15:05;;;;;;;13.55;7.65;;;;;;;2.62;100.00;99822.80;1731376;82;21002;-64
2022/02/24 00:17:33;;;;;;;13.08;7.08;;;;;;;2.64;100.00;99824.73;1725679;81;21106;-63
2022/02/24 00:19:59;;;;;;;12.80;7.05;;;;;;;2.72;100.00;99821.80;1728929;82;20984;-64
2022/02/24 00:22:27;;;;;;;12.30;7.15;;;;;;;2.86;100.00;99824.67;1729595;82;21072;-63
2022/02/24 00:24:54;;;;;;;;;;;;;;;2.89;100.00;99823.72;1747284;82;21066;-65
2022/02/24 00:27:21;;;;;;;10.05;6.35;;;;;;;2.90;100.00;99823.20;1738085;81;20106;-64
2022/02/24 00:29:47;;;;;;;15.13;7.78;;;;;;;2.82;100.00;99831.53;1732082;82;21034;-64
2022/02/24 00:32:13;;;;;;;13.93;7.75;;;;;;;2.82;100.00;99831.53;1739341;81;21062;-64
2022/02/24 00:34:40;;;;;;;13.75;7.17;;;;;;;2.89;100.00;99838.50;1733457;82;21086;-64
2022/02/24 00:37:06;;;;;;;12.90;6.62;;;;;;;3.01;100.00;99841.31;1733970;81;21030;-64
2022/02/24 00:39:33;;;;;;;11.63;7.12;;;;;;;3.09;100.00;99836.97;1732887;82;21545;-64
2022/02/24 00:41:59;;;;;;;13.35;7.42;;;;;;;3.13;100.00;99836.84;1740318;81;21090;-64
2022/02/24 00:44:26;;;;;;;11.12;7.47;;;;;;;3.09;100.00;99838.31;1744135;82;21047;-64
2022/02/24 00:46:52;;;;;;;11.10;7.40;;;;;;;3.07;100.00;99840.42;1739943;82;21055;-64
2022/02/24 00:49:20;;;;;;;12.82;7.80;;;;;;;3.04;100.00;99835.48;1728373;81;21485;-64
2022/02/24 00:51:47;;;;;;;13.68;7.37;;;;;;;3.01;100.00;99828.66;1731859;82;21000;-64
2022/02/24 00:54:14;;;;;;;17.32;8.13;;;;;;;3.08;100.00;99839.91;1732100;80;21118;-64
2022/02/24 00:56:40;;;;;;;11.03;6.35;;;;;;;3.16;100.00;99844.46;1738605;82;21579;-63
2022/02/24 00:59:07;;;;;;;12.35;7.75;;;;;;;3.23;100.00;99841.70;1730044;81;21026;-64
2022/02/24 01:01:34;;;;;;;15.35;7.80;;;;;;;3.25;100.00;99842.33;1739999;81;21038;-64
2022/02/24 01:04:00;;;;;;;;;;;;;;;3.21;100.00;99851.36;1741625;81;21157;-64
2022/02/24 01:06:27;;;;;;;14.63;7.60;;;;;;;3.19;100.00;99853.43;1725430;81;20158;-64
2022/02/24 01:08:53;;;;;;;14.65;8.33;;;;;;;3.08;100.00;99854.70;1733486;81;21066;-64
2022/02/24 01:11:20;;;;;;;15.45;7.87;;;;;;;3.04;100.00;99850.80;1738425;82;21544;-64
2022/02/24 01:13:46;;;;;;;;;;;;;;;3.08;100.00;99851.48;1743814;80;21048;-64
2022/02/24 01:16:13;;;;;;;13.20;7.25;;;;;;;3.17;100.00;99855.53;1731755;82;20158;-64
2022/02/24 01:18:39;;;;;;;;;;;;;;;3.20;100.00;99847.02;1736657;82;21019;-63
2022/02/24 01:21:06;;;;;;;12.25;7.03;;;;;;;3.18;100.00;99851.81;1745611;82;20107;-64
2022/02/24 01:23:32;;;;;;;11.88;7.72;;;;;;;3.05;100.00;99851.90;1730652;82;21515;-63
2022/02/24 01:25:58;;;;;;;;;;;;;;;2.97;100.00;99854.38;1744785;82;21115;-64
2022/02/24 01:28:25;;;;;;;14.23;8.30;;;;;;;2.94;100.00;99856.13;1730716;81;20123;-64
2022/02/24 01:30:51;;;;;;;14.68;7.72;;;;;;;2.84;100.00;99859.00;1731983;82;21018;-64
2022/02/24 01:33:18;;;;;;;13.50;8.48;;;;;;;2.88;100.00;99859.70;1730817;82;21024;-64
2022/02/24 01:35:45;;;;;;;;;;;;;;;2.98;100.00;99859.20;1748020;82;21086;-64
2022/02/24 01:38:12;;;;;;;10.93;6.80;;;;;;;3.00;100.00;99867.89;1732265;81;20099;-64
2022/02/24 01:40:38;;;;;;;13.93;8.03;;;;;;;2.91;100.00;99869.19;1729442;82;21047;-65
2022/02/24 01:43:05;;;;;;;14.28;8.50;;;;;;;2.87;100.00;99868.80;1737004;81;21094;-64
2022/02/24 01:45:31;;;;;;;;;;;;;;;2.85;100.00;99867.38;1737357;82;21088;-65
2022/02/24 01:47:58;;;;;;;11.75;7.58;;;;;;;2.89;100.00;99868.59;1733063;81;20135;-64
2022/02/24 01:50:26;;;;;;;14.25;7.83;;;;;;;2.95;100.00;99862.33;1737175;82;21101;-65
2022/02/24 01:52:52;;;;;;;11.45;7.37;;;;;;;3.00;100.00;99868.72;1734982;81;21026;-64
2022/02/24 01:55:19;;;;;;;9.53;6.65;;;;;;;3.02;100.00;99869.83;1737837;82;21098;-65
2022/02/24 01:57:46;;;;;;;;;;;;;;;2.96;100.00;99874.23;1748956;80;21063;-64
2022/02/24 02:00:14;;;;;;;12.73;7.67;;;;;;;2.89;100.00;99882.04;1748687;82;20107;-64
2022/02/24 02:02:40;;;;;;;11.93;7.30;;;;;;;2.77;100.00;99885.12;1735787;82;21090;-64
2022/02/24 02:05:07;;;;;;;15.90;8.48;;;;;;;2.82;100.00;99886.64;1734384;82;21014;-64
2022/02/24 02:07:34;;;;;;;11.88;7.85;;;;;;;2.88;100.00;99889.28;1738422;81;21062;-64
2022/02/24 02:10:01;;;;;;;12.58;7.70;;;;;;;2.87;100.00;99886.28;1729747;82;21562;-65
2022/02/24 02:12:27;;;;;;;13.50;8.80;;;;;;;2.85;100.00;99891.58;1736277;81;21631;-64
2022/02/24 02:14:55;;;;;;;12.15;8.45;;;;;;;2.83;100.00;99901.23;1736747;82;21613;-64
2022/02/24 02:17:22;;;;;;;;;;;;;;;2.87;100.00;99905.10;1733514;82;21027;-64
2022/02/24 02:19:48;;;;;;;11.90;7.92;;;;;;;2.91;100.00;99900.11;1731957;82;20107;-64
2022/02/24 02:22:15;;;;;;;12.60;9.13;;;;;;;2.77;100.00;99906.62;1730138;81;21062;-64
2022/02/24 02:25:00;;;;;;;14.30;8.48;;;;;;;2.68;100.00;99903.39;1735896;82;21015;-64
2022/02/24 02:27:26;;;;;;;12.93;8.53;;;;;;;2.72;100.00;99910.50;1723118;81;20980;-64
2022/02/24 02:29:53;;;;;;;15.00;9.98;;;;;;;2.77;100.00;99910.66;1729961;82;21624;-64
2022/02/24 02:32:19;;;;;;;;;;;;;;;2.75;100.00;99916.27;1734332;82;21509;-64
2022/02/24 02:34:46;;;;;;;15.43;9.65;;;;;;;2.71;100.00;99923.11;1729738;82;20397;-64
2022/02/24 02:37:13;;;;;;;15.35;9.60;;;;;;;2.68;100.00;99915.48;1732465;82;21063;-64
2022/02/24 02:39:39;;;;;;;14.73;9.35;;;;;;;2.79;100.00;99920.17;1733281;82;21498;-63
2022/02/24 02:42:07;;;;;;;16.82;10.43;;;;;;;2.84;100.00;99926.22;1708097;83;20979;-64
2022/02/24 02:44:33;;;;;;;14.20;10.00;;;;;;;2.78;100.00;99927.09;1732238;82;21694;-65
2022/02/24 02:47:00;;;;;;;15.90;10.10;;;;;;;2.76;100.00;99926.50;1734906;82;21455;-65
2022/02/24 02:49:26;;;;;;;14.63;10.53;;;;;;;2.82;100.00;99933.69;1734587;81;21625;-64
2022/02/24 02:51:53;;;;;;;;;;;;;;;2.79;100.00;99937.65;1736777;81;21000;-64
2022/02/24 02:54:20;;;;;;;16.95;10.60;;;;;;;2.76;100.00;99941.29;1736688;82;20131;-64
2022/02/24 02:56:48;;;;;;;16.12;10.55;;;;;;;2.76;100.00;99938.09;1742522;82;21109;-64
2022/02/24 02:59:17;;;;;;;15.23;10.82;;;;;;;2.79;100.00;99944.88;1730425;82;21106;-64
2022/02/24 03:01:53;;;;;;;14.30;10.45;;;;;;;2.73;100.00;99944.41;1732616;81;21541;-64
2022/02/24 03:04:20;;;;;;;14.20;10.08;;;;;;;2.69;100.00;99939.16;1731078;82;21593;-64
2022/02/24 03:06:47;;;;;;;14.13;9.85;;;;;;;2.76;100.00;99942.63;1743364;82;21622;-65
2022/02/24 03:09:13;;;;;;;12.65;9.85;;;;;;;2.74;100.00;99943.35;1715770;82;22005;-64
2022/02/24 03:11:39;;;;;;;14.43;9.38;;;;;;;2.64;100.00;99947.03;1735281;82;21612;-64
2022/02/24 03:14:06;;;;;;;;;;;;;;;2.67;100.00;99943.91;1740666;81;21098;-66
2022/02/24 03:16:33;;;;;;;13.35;8.48;;;;;;;2.75;100.00;99950.39;1731446;82;20428;-64
2022/02/24 03:19:00;;;;;;;14.87;9.63;;;;;;;2.80;100.00;99941.96;1684628;84;21098;-64
2022/02/24 03:21:26;;;;;;;13.68;9.23;;;;;;;2.82;100.00;99950.66;1726377;82;21002;-65
2022/02/24 03:23:53;;;;;;;15.23;10.23;;;;;;;2.79;100.00;99947.58;1722384;81;21043;-64
2022/02/24 03:26:19;;;;;;;15.28;10.38;;;;;;;2.74;100.00;99948.73;1722533;82;21053;-64
2022/02/24 03:28:45;;;;;;;14.68;10.03;;;;;;;2.73;100.00;99945.21;1723165;81;21083;-64
2022/02/24 03:31:12;;;;;;;12.90;10.10;;;;;;;2.77;100.00;99943.74;1716170;82;20955;-64
2022/02/24 03:33:40;;;;;;;15.38;10.60;;;;;;;2.75;100.00;99949.04;1726001;82;21597;-64
2022/02/24 03:36:06;;;;;;;13.80;9.75;;;;;;;2.64;100.00;99947.86;1720996;82;21506;-64
2022/02/24 03:38:33;;;;;;;15.20;10.32;;;;;;;2.54;100.00;99950.19;1702578;82;21494;-64
2022/02/24 03:41:01;;;;;;;15.58;10.82;;;;;;;2.55;100.00;99956.40;1718970;82;20983;-63
2022/02/24 03:43:27;;;;;;;16.95;10.88;;;;;;;2.61;100.00;99956.88;1729830;82;21019;-64
2022/02/24 03:45:54;;;;;;;15.72;10.53;;;;;;;2.61;100.00;99960.91;1720417;82;21001;-65
2022/02/24 03:48:21;;;;;;;15.90;11.12;;;;;;;2.51;100.00;99960.83;1722293;82;21059;-65
2022/02/24 03:50:49;;;;;;;;;;;;;;;2.47;100.00;99965.52;1712485;82;21082;-63
2022/02/24 03:53:15;;;;;;;18.67;12.30;;;;;;;2.42;100.00;99973.39;1720190;82;20464;-63
2022/02/24 03:55:42;;;;;;;14.30;10.43;;;;;;;2.30;100.00;99962.47;1708378;82;21050;-66
2022/02/24 03:58:08;;;;;;;15.28;10.28;;;;;;;2.33;100.00;99965.27;1723613;81;21130;-64
2022/02/24 04:00:35;;;;;;;12.37;8.65;;;;;;;2.40;100.00;99965.56;1722181;82;21157;-64
2022/02/24 04:03:02;;;;;;;12.18;8.65;;;;;;;2.46;100.00;99969.24;1728217;82;21024;-65
2022/02/24 04:05:28;;;;;;;12.60;9.03;;;;;;;2.37;100.00;99972.67;1730755;82;21049;-65
2022/02/24 04:07:55;;;;;;;12.18;9.03;;;;;;;2.37;100.00;99972.67;1720431;82;21114;-65
2022/02/24 04:10:21;;;;;;;15.20;10.40;;;;;;;2.31;100.00;99979.42;1686231;84;21107;-65
2022/02/24 04:12:48;;;;;;;;;;;;;;;2.24;100.00;99983.48;1741104;81;21154;-64
2022/02/24 04:15:14;;;;;;;17.45;10.03;;;;;;;2.28;100.00;99986.05;1730497;82;20138;-64
2022/02/24 04:17:41;;;;;;;13.85;9.23;;;;;;;2.32;100.00;99985.94;1728293;82;21066;-65
2022/02/24 04:20:09;;;;;;;12.45;9.50;;;;;;;2.35;100.00;99988.71;1731298;82;21047;-62
2022/02/24 04:22:36;;;;;;;13.10;9.30;;;;;;;2.37;100.00;99994.72;1734859;82;21632;-65
2022/02/24 04:25:04;;;;;;;14.18;10.75;;;;;;;2.30;100.00;99997.40;1724482;82;21483;-64
2022/02/24 04:27:31;;;;;;;15.65;11.40;;;;;;;2.26;100.00;100000.23;1724311;82;21074;-64
2022/02/24 04:29:58;;;;;;;;;;;;;;;2.22;100.00;100006.22;1729037;82;21109;-64
2022/02/24 04:32:25;;;;;;;14.47;11.10;;;;;;;2.26;100.00;100014.17;1733316;81;20154;-64
2022/02/24 04:34:51;;;;;;;15.08;9.88;;;;;;;2.33;100.00;100019.01;1725780;82;21005;-62
2022/02/24 04:37:17;;;;;;;12.53;9.18;;;;;;;2.42;100.00;100016.37;1726433;82;21023;-65
2022/02/24 04:39:44;;;;;;;12.55;9.15;;;;;;;2.45;100.00;100025.36;1732595;82;21055;-61
2022/02/24 04:42:11;;;;;;;14.45;9.88;;;;;;;2.42;100.00;100021.75;1733218;82;20995;-64
2022/02/24 04:44:38;;;;;;;16.32;10.90;;;;;;;2.40;100.00;100022.50;1722601;82;21029;-62
2022/02/24 04:47:04;;;;;;;14.10;10.53;;;;;;;2.37;100.00;100036.36;1730260;82;21003;-62
2022/02/24 04:49:31;;;;;;;12.85;9.40;;;;;;;2.44;100.00;100047.91;1733800;81;21011;-62
2022/02/24 04:51:58;;;;;;;15.72;10.45;;;;;;;2.50;100.00;100048.40;1719946;82;21020;-64
2022/02/24 04:54:24;;;;;;;14.83;10.08;;;;;;;2.50;100.00;100045.20;1723690;82;21617;-65
2022/02/24 04:56:51;;;;;;;14.07;11.18;;;;;;;2.34;100.00;100044.30;1731179;82;21052;-63
2022/02/24 04:59:17;;;;;;;16.10;10.32;;;;;;;2.33;100.00;100060.65;1726025;81;21110;-62
2022/02/24 05:01:44;;;;;;;;;;;;;;;2.34;100.00;100061.77;1727022;82;21018;-63
2022/02/24 05:04:10;;;;;;;12.60;8.70;;;;;;;2.45;100.00;100073.20;1723660;82;20477;-63
2022/02/24 05:06:37;;;;;;;12.95;9.60;;;;;;;2.51;100.00;100080.42;1723264;82;21058;-64
2022/02/24 05:09:04;;;;;;;13.70;9.58;;;;;;;2.53;100.00;100092.83;1726041;82;21020;-64
2022/02/24 05:11:31;;;;;;;13.13;9.73;;;;;;;2.49;100.00;100093.25;1715281;82;21055;-64
2022/02/24 05:13:57;;;;;;;;;;;;;;;2.45;100.00;100099.25;1725104;81;21122;-62
2022/02/24 05:16:23;;;;;;;14.45;9.78;;;;;;;2.48;100.00;100096.97;1714789;82;20139;-62
2022/02/24 05:18:50;;;;;;;12.30;8.90;;;;;;;2.55;100.00;100105.55;1723466;82;21016;-62
2022/02/24 05:24:20;;;;;;;15.90;10.28;;;;;;;2.54;100.00;100106.58;1859994;75;22678;-63
2022/02/24 05:26:46;;;;;;;;;;;;;;;2.53;100.00;100117.02;1834118;77;21049;-64
2022/02/24 05:29:13;;;;;;;12.90;9.15;;;;;;;2.60;100.00;100121.34;1834012;77;20125;-62
2022/02/24 05:31:39;;;;;;;12.98;9.20;;;;;;;2.62;100.00;100126.52;1821431;77;21457;-64
2022/02/24 05:34:06;;;;;;;14.07;9.30;;;;;;;2.58;100.00;100132.84;1837443;75;21054;-63
2022/02/24 05:36:32;;;;;;;11.83;8.53;;;;;;;2.54;100.00;100134.28;1836629;77;21447;-61
2022/02/24 05:38:59;;;;;;;11.75;8.70;;;;;;;2.60;100.00;100134.78;1833459;77;21587;-61
2022/02/24 05:41:25;;;;;;;;;;;;;;;2.66;100.00;100138.51;1837721;77;21517;-62
2022/02/24 05:43:52;;;;;;;12.28;8.63;;;;;;;2.63;100.00;100142.93;1829511;77;20125;-62
2022/02/24 05:46:18;;;;;;;11.15;7.97;;;;;;;2.49;100.00;100142.97;1829841;77;21514;-63
2022/02/24 05:48:45;;;;;;;10.65;8.20;;;;;;;2.57;100.00;100154.02;1828897;75;21702;-63
2022/02/24 05:51:11;;;;;;;11.63;8.80;;;;;;;2.64;100.00;100150.80;1837449;77;22029;-64
2022/02/24 05:53:38;;;;;;;;;;;;;;;2.62;100.00;100160.12;1830569;77;21050;-64
2022/02/24 05:56:06;;;;;;;12.82;9.35;;;;;;;2.60;100.00;100162.17;1830612;77;20105;-65
2022/02/24 05:58:33;;;;;;;15.03;9.30;;;;;;;2.56;100.00;100159.59;1832832;77;21201;-63
2022/02/24 06:00:59;;;;;;;11.78;8.80;;;;;;;2.70;100.00;100170.62;1822449;77;21476;-64
2022/02/24 06:03:26;;;;;;;11.48;9.08;;;;;;;2.75;100.00;100171.66;1829658;77;21071;-62
2022/02/24 06:05:56;;;;;;;13.70;9.30;;;;;;;2.74;100.00;100170.00;1839855;77;21405;-63
2022/02/24 06:08:22;;;;;;;12.68;9.23;;;;;;;2.75;100.00;100175.70;1828111;77;21087;-62
2022/02/24 06:10:49;;;;;;;12.95;9.20;;;;;;;2.81;100.00;100178.05;1829355;77;21015;-62
2022/02/24 06:13:16;;;;;;;12.90;9.78;;;;;;;2.88;100.00;100183.72;1792097;77;21137;-62
2022/02/24 06:15:42;;;;;;;;;;;;;;;2.86;100.00;100181.77;1764106;80;21034;-62
2022/02/24 06:18:10;;;;;;;14.25;9.78;;;;;;;2.80;100.00;100183.94;1758907;80;20106;-63
2022/02/24 06:20:37;;;;;;;12.33;8.08;;;;;;;2.78;100.00;100190.06;1758499;80;21004;-62
2022/02/24 06:23:03;;;;;;;13.03;8.30;;;;;;;2.86;100.00;100191.19;1755225;80;21186;-64
2022/02/24 06:25:30;;;;;;;12.60;8.68;;;;;;;2.85;100.00;100194.90;1789321;79;21913;-65
2022/02/24 06:27:58;;;;;;;11.80;8.90;;;;;;;2.85;100.00;100193.56;1770556;79;21559;-64
2022/02/24 06:30:25;;;;;;;11.55;8.45;;;;;;;2.92;100.00;100193.53;1769012;79;21029;-61
2022/02/24 06:32:51;;;;;;;11.20;8.75;;;;;;;2.99;100.00;100195.17;1771051;79;21052;-64
2022/02/24 06:35:18;;;;;;;10.18;8.23;;;;;;;3.03;100.00;100202.30;1772946;79;21081;-63
2022/02/24 06:37:45;;;;;;;10.80;7.92;;;;;;;2.99;100.00;100203.75;1770999;79;21620;-64
2022/02/24 06:40:13;;;;;;;10.68;7.78;;;;;;;3.02;100.00;100215.44;1779903;79;21021;-64
2022/02/24 06:42:40;;;;;;;9.53;7.42;;;;;;;3.11;100.00;100216.87;1771031;79;21109;-65
2022/02/24 06:45:08;;;;;;;12.15;8.08;;;;;;;3.08;100.00;100219.98;1771319;79;21042;-65
2022/02/24 06:47:35;;;;;;;9.65;7.17;;;;;;;3.03;100.00;100217.61;1752142;79;20994;-63
2022/02/24 06:50:04;;;;;;;10.93;7.33;;;;;;;3.09;100.00;100232.89;1775206;79;20954;-61
2022/02/24 06:52:31;;;;;;;10.30;8.05;;;;;;;3.16;100.00;100235.88;1771958;79;21020;-63
2022/02/24 06:54:58;;;;;;;10.00;7.08;;;;;;;3.15;100.00;100230.73;1771692;79;20958;-63
2022/02/24 06:57:25;;;;;;;11.12;7.03;;;;;;;3.12;100.00;100231.16;1770482;79;21449;-63
2022/02/24 06:59:51;;;;;;;10.20;7.25;;;;;;;3.18;100.00;100234.33;1771018;79;21048;-66
2022/02/24 07:02:18;;;;;;;11.85;7.75;;;;;;;3.17;100.00;100233.50;1770841;80;21036;-65
2022/02/24 07:04:44;;;;;;;9.60;6.78;;;;;;;3.09;100.00;100239.62;1770385;79;21040;-65
2022/02/24 07:07:11;;;;;;;;;;;;;;;3.06;100.00;100238.19;1774124;79;21036;-64
2022/02/24 07:09:37;;;;;;;10.23;6.35;;;;;;;3.08;100.00;100252.27;1776893;79;20101;-65
2022/02/24 07:12:04;;;;;;;8.30;6.28;;;;;;;2.95;100.00;100249.59;1772015;79;20984;-65
2022/02/24 07:14:31;;;;;;;7.87;5.95;;;;;;;2.96;100.00;100254.77;1779554;79;21060;-65
2022/02/24 07:16:57;;;;;;;;;;;;;;;3.00;100.00;100256.52;1782594;79;20986;-66
2022/02/24 07:19:24;;;;;;;9.53;6.42;;;;;;;3.03;100.00;100259.30;1752219;79;20106;-66
2022/02/24 07:21:52;;;;;;;8.78;6.35;;;;;;;2.92;100.00;100260.77;1773878;79;21041;-66
2022/02/24 07:24:18;;;;;;;10.38;6.10;;;;;;;2.95;100.00;100266.55;1769345;79;21044;-65
2022/02/24 07:26:45;;;;;;;10.25;6.37;;;;;;;3.07;100.00;100273.47;1770093;80;20969;-64
2022/02/24 07:29:11;;;;;;;10.48;6.87;;;;;;;3.04;100.00;100271.72;1765397;80;21169;-65
2022/02/24 07:31:38;;;;;;;8.55;6.20;;;;;;;3.04;100.00;100273.06;1767573;80;20995;-65
2022/02/24 07:34:05;;;;;;;9.43;6.03;;;;;;;3.11;100.00;100278.74;1767724;80;21056;-66
2022/02/24 07:36:32;;;;;;;9.98;5.90;;;;;;;3.14;100.00;100277.48;1768131;80;21017;-63
2022/02/24 07:38:59;;;;;;;8.43;6.03;;;;;;;3.13;100.00;100278.00;1764319;80;21048;-64
2022/02/24 07:41:26;;;;;;;9.28;6.45;;;;;;;3.14;100.00;100276.14;1769584;80;21001;-67
2022/02/24 07:43:53;;;;;;;9.15;6.78;;;;;;;3.18;100.00;100277.37;1763888;80;21451;-65
2022/02/24 07:46:19;;;;;;;11.40;7.10;;;;;;;3.27;100.00;100287.70;1765806;80;21037;-66
2022/02/24 07:48:46;;;;;;;11.12;6.72;;;;;;;3.26;100.00;100285.23;1766286;80;21020;-65
2022/02/24 07:51:12;;;;;;;11.12;6.47;;;;;;;3.23;100.00;100285.63;1765224;80;21551;-65
2022/02/24 07:53:39;;;;;;;7.58;5.72;;;;;;;3.29;100.00;100294.22;1768045;79;21149;-65
2022/02/24 07:56:05;;;;;;;10.20;6.95;;;;;;;3.35;100.00;100296.06;1766017;80;21005;-64
2022/02/24 07:58:32;;;;;;;8.30;5.97;;;;;;;3.35;100.00;100302.79;1762498;80;21374;-65
2022/02/24 08:00:58;;;;;;;7.12;5.95;;;;;;;3.33;100.00;100303.53;1767898;80;21548;-65
2022/02/24 08:03:25;;;;;;;7.15;5.65;;;;;;;3.36;100.00;100303.94;1766170;79;21039;-67
2022/02/24 08:05:53;;;;;;;;;;;;;;;3.40;100.00;100310.52;1767680;80;21010;-63
2022/02/24 08:08:20;;;;;;;7.08;6.20;;;;;;;3.41;100.00;100306.80;1764346;80;20456;-64
2022/02/24 08:10:49;;;;;;;9.08;5.80;;;;;;;3.45;100.00;100313.42;1766822;80;20977;-62
2022/02/24 08:13:15;;;;;;;7.37;5.80;;;;;;;3.50;100.00;100311.45;1767679;80;21064;-64
2022/02/24 08:15:44;;;;;;;8.80;6.15;;;;;;;3.54;100.00;100313.20;1768150;80;21037;-62
2022/02/24 08:18:11;;;;;;;8.90;5.75;;;;;;;3.56;100.00;100313.80;1765015;80;21072;-63
2022/02/24 08:20:37;;;;;;;8.10;6.10;;;;;;;3.65;100.00;100317.38;1766005;80;21059;-63
2022/02/24 08:23:04;;;;;;;9.75;6.80;;;;;;;3.78;100.00;100313.31;1768242;79;21167;-62
2022/02/24 08:25:32;;;;;;;8.65;6.67;;;;;;;3.78;100.00;100316.52;1756553;80;21018;-61
2022/02/24 08:28:00;;;;;;;9.38;6.92;;;;;;;3.65;100.00;100307.95;1761847;80;21062;-63
2022/02/24 08:30:28;;;;;;;8.30;6.30;;;;;;;3.77;100.00;100322.42;1726024;81;21303;-62
2022/02/24 08:32:54;;;;;;;8.53;5.80;;;;;;;3.76;100.00;100315.89;1762671;79;21064;-60
2022/02/24 08:35:21;;;;;;;6.45;5.60;;;;;;;3.74;100.00;100313.95;1747397;80;21020;-62
2022/02/24 08:37:47;;;;;;;;;;;;;;;3.84;100.00;100329.95;1761647;80;21377;-61
2022/02/24 08:40:16;;;;;;;8.33;6.17;;;;;;;3.91;100.00;100322.67;1729093;82;20112;-61
2022/02/24 08:42:43;;;;;;;7.90;5.10;;;;;;;3.92;100.00;100327.55;1737621;81;21508;-65
2022/02/24 08:45:11;;;;;;;8.78;6.05;;;;;;;4.08;100.00;100328.90;1725573;81;20996;-63
2022/02/24 08:47:40;;;;;;;7.83;5.75;;;;;;;4.14;100.00;100322.67;1728998;81;21550;-62
2022/02/24 08:50:08;;;;;;;7.80;5.90;;;;;;;4.14;100.00;100326.71;1738875;81;20994;-61
2022/02/24 08:52:35;;;;;;;6.97;5.12;;;;;;;4.18;100.00;100328.73;1741302;81;21049;-62
2022/02/24 08:55:01;;;;;;;8.23;5.67;;;;;;;4.26;100.00;100327.66;1740494;81;21082;-61
2022/02/24 08:57:28;;;;;;;;;;;;;;;4.23;100.00;100334.84;1743711;81;21191;-62
2022/02/24 08:59:54;;;;;;;6.83;5.50;;;;;;;4.16;100.00;100327.31;1754813;81;20106;-62
2022/02/24 09:02:21;;;;;;;7.35;5.60;;;;;;;4.08;100.00;100318.95;1755528;80;22146;-62
2022/02/24 09:04:47;;;;;;;;;;;;;;;4.21;100.00;100331.03;1757520;81;21042;-61
2022/02/24 09:07:14;;;;;;;9.98;6.80;;;;;;;4.25;100.00;100330.88;1753601;80;20527;-62
2022/02/24 09:09:42;;;;;;;9.93;6.05;;;;;;;4.18;100.00;100330.09;1754253;81;21094;-63
2022/02/24 09:12:11;;;;;;;7.75;5.83;;;;;;;4.25;100.00;100329.53;1754376;80;21513;-62
2022/02/24 09:14:37;;;;;;;7.37;5.45;;;;;;;4.41;100.00;100341.67;1753924;81;21112;-62
2022/02/24 09:17:05;;;;;;;9.48;6.35;;;;;;;4.50;100.00;100338.49;1754277;81;21566;-62
2022/02/24 09:19:32;;;;;;;7.25;5.50;;;;;;;4.51;100.00;100337.46;1754818;81;21174;-62
2022/02/24 09:21:59;;;;;;;8.23;5.90;;;;;;;4.59;100.00;100333.68;1755347;81;21034;-62
2022/02/24 09:24:25;;;;;;;8.68;5.62;;;;;;;4.68;100.00;100335.56;1753983;81;21110;-63
2022/02/24 09:26:51;;;;;;;;;;;;;;;4.60;100.00;100334.51;1755742;80;21026;-61
2022/02/24 09:29:18;;;;;;;8.28;5.30;;;;;;;4.53;100.00;100336.42;1753399;81;20134;-63
2022/02/24 09:31:44;;;;;;;6.42;5.05;;;;;;;4.53;100.00;100335.36;1752835;81;21026;-64
2022/02/24 09:34:11;;;;;;;8.70;5.05;;;;;;;4.69;100.00;100336.71;1752619;80;21758;-63
2022/02/24 09:36:38;;;;;;;6.47;4.83;;;;;;;4.72;100.00;100340.83;1750136;81;21078;-62
2022/02/24 09:39:05;;;;;;;;;;;;;;;4.61;100.00;100341.02;1755409;81;21582;-63
2022/02/24 09:41:31;;;;;;;7.33;4.78;;;;;;;4.65;100.00;100340.05;1751602;80;20170;-62
2022/02/24 09:43:58;;;;;;;5.80;4.58;;;;;;;4.70;100.00;100332.14;1751997;80;21042;-63
2022/02/24 09:46:26;;;;;;;9.18;6.85;;;;;;;4.57;100.00;100331.70;1755106;80;21033;-63
2022/02/24 09:48:53;;;;;;;6.60;5.20;;;;;;;4.47;100.00;100328.67;1752696;81;21062;-62
2022/02/24 09:51:19;;;;;;;6.45;4.62;;;;;;;4.46;100.00;100333.23;1732049;81;21042;-63
2022/02/24 09:53:47;;;;;;;6.72;4.80;;;;;;;4.42;100.00;100330.69;1753868;81;21050;-63
2022/02/24 09:56:20;;;;;;;6.60;5.47;;;;;;;4.44;100.00;100333.15;1752937;81;20990;-63
2022/02/24 09:58:48;;;;;;;6.65;4.60;;;;;;;4.47;100.00;100330.02;1748940;80;21030;-62
2022/02/24 10:01:17;;;;;;;5.78;4.50;;;;;;;4.57;100.00;100332.25;1752940;81;20979;-63
2022/02/24 10:03:48;;;;;;;7.20;4.90;;;;;;;4.57;100.00;100330.36;1745377;80;21061;-63
2022/02/24 10:06:15;;;;;;;6.03;4.28;;;;;;;4.50;100.00;100326.36;1740982;81;21025;-63
2022/02/24 10:08:46;;;;;;;6.00;4.60;;;;;;;4.55;100.00;100323.02;1775083;79;21589;-63
2022/02/24 10:11:21;;;;;;;6.37;4.97;;;;;;;4.56;100.00;100321.98;1782892;79;20980;-62
2022/02/24 10:14:10;;;;;;;7.70;5.78;;;;;;;4.48;100.00;100319.55;1780347;79;21112;-64
2022/02/24 10:17:01;;;;;;;8.25;5.42;;;;;;;4.46;100.00;100329.73;1806271;79;21506;-64
2022/02/24 10:19:33;;;;;;;6.10;4.00;;;;;;;4.58;100.00;100326.62;1801363;77;21076;-64
2022/02/24 10:22:15;;;;;;;6.62;5.08;;;;;;;4.61;100.00;100324.00;1765088;80;20994;-65
2022/02/24 10:24:44;;;;;;;7.50;5.40;;;;;;;4.51;100.00;100323.98;1758263;80;21588;-63
2022/02/24 10:27:20;;;;;;;7.10;4.55;;;;;;;4.50;100.00;100324.19;1755573;80;20973;-65
2022/02/24 10:30:19;;;;;;;6.53;4.20;;;;;;;4.57;100.00;100326.86;1758804;80;21580;-65
2022/02/24 10:32:50;;;;;;;5.67;4.35;;;;;;;4.65;100.00;100319.83;1785950;79;21044;-65
2022/02/24 10:35:40;;;;;;;8.03;7.20;;;;;;;4.59;100.00;100315.32;1791059;79;20984;-68
2022/02/24 10:38:09;;;;;;;6.62;4.72;;;;;;;4.53;100.00;100317.03;1744278;79;21069;-67
2022/02/24 10:40:48;;;;;;;8.80;7.22;;;;;;;4.58;100.00;100321.23;1784004;79;21050;-67
2022/02/24 10:43:24;;;;;;;8.58;6.53;;;;;;;4.67;100.00;100309.67;1784639;77;20985;-67
2022/02/24 10:46:05;;;;;;;7.00;5.42;;;;;;;4.66;100.00;100301.27;1789806;79;20977;-66
2022/02/24 10:48:48;;;;;;;8.98;7.08;;;;;;;4.64;100.00;100314.95;1777174;80;21890;-66
2022/02/24 10:51:21;;;;;;;6.62;4.42;;;;;;;4.61;100.00;100318.61;1788569;79;20919;-66
2022/02/24 10:54:09;;;;;;;7.62;5.67;;;;;;;4.73;100.00;100313.66;1787076;79;21069;-69
2022/02/24 10:56:40;;;;;;;7.17;4.87;;;;;;;4.78;100.00;100315.70;1790226;79;21037;-66
2022/02/24 10:59:08;;;;;;;6.72;4.65;;;;;;;4.71;100.00;100310.33;1786679;79;21051;-67
2022/02/24 11:01:35;;;;;;;6.12;4.17;;;;;;;4.65;100.00;100323.36;1799105;79;20958;-68
2022/02/24 11:04:04;;;;;;;6.62;4.45;;;;;;;4.68;100.00;100316.69;1795787;79;21019;-67
2022/02/24 11:06:36;;;;;;;7.97;5.70;;;;;;;4.69;100.00;100323.22;1753582;80;21275;-67
2022/02/24 11:09:05;;;;;;;6.05;4.33;;;;;;;4.65;100.00;100321.17;1759581;81;21084;-67
2022/02/24 11:11:34;;;;;;;5.92;3.90;;;;;;;4.67;100.00;100320.45;1781644;80;21560;-67
2022/02/24 11:14:06;;;;;;;6.42;4.28;;;;;;;4.74;100.00;100310.44;1773333;79;21089;-67
2022/02/24 11:16:33;;;;;;;5.80;4.22;;;;;;;4.81;100.00;100313.91;1781579;80;21619;-66
2022/02/24 11:19:00;;;;;;;5.67;3.62;;;;;;;4.79;100.00;100307.89;1779342;79;21117;-68
2022/02/24 11:21:29;;;;;;;5.92;3.77;;;;;;;4.83;100.00;100305.89;1759179;80;21046;-69
2022/02/24 11:23:56;;;;;;;6.03;4.37;;;;;;;4.84;100.00;100302.16;1785368;79;21056;-69
2022/02/24 11:26:31;;;;;;;7.55;5.00;;;;;;;4.80;100.00;100308.20;1791932;79;21394;-67
2022/02/24 11:29:34;;;;;;;6.28;4.40;;;;;;;4.86;100.00;100307.31;1782392;79;21050;-68
2022/02/24 11:32:09;;;;;;;5.37;3.52;;;;;;;4.88;100.00;100307.42;1782162;80;21022;-66
2022/02/24 11:35:13;;;;;;;6.83;4.78;;;;;;;4.77;100.00;100310.00;1788523;80;21486;-68